Time;durP1;ratioP1;P1;durP2;ratioP2;P2;SDS_P1;SDS_P2;PMS_P1;PMS_P2;Temp;Humidity;BMP_temperature;BMP_pressure;BME280_temperature;BME280_humidity;BME280_pressure;Samples;Min_cycle;Max_cycle;Signal;HPM_P1;HPM_P2
2021/04/14 00:02:25;;;;;;;2.83;2.08;;;;;;;8.67;81.13;96733.43;1730331;83;21581;-80
2021/04/14 00:04:56;;;;;;;1.82;1.30;;;;;;;8.67;81.13;96733.43;1729843;83;21156;-79
2021/04/14 00:07:24;;;;;;;3.12;1.62;;;;;;;8.68;81.74;96734.61;1727851;83;21159;-79
2021/04/14 00:09:51;;;;;;;1.65;1.30;;;;;;;8.55;81.84;96728.17;1729504;83;21282;-79
2021/04/14 00:12:18;;;;;;;1.82;1.65;;;;;;;8.43;82.03;96731.25;1729094;83;21143;-80
2021/04/14 00:14:46;;;;;;;2.05;1.40;;;;;;;8.38;81.73;96729.93;1728687;83;21160;-78
2021/04/14 00:17:13;;;;;;;1.80;1.40;;;;;;;8.27;82.17;96725.52;1729106;83;21576;-79
2021/04/14 00:19:41;;;;;;;1.80;1.60;;;;;;;8.24;82.19;96727.91;1726632;83;21139;-79
2021/04/14 00:22:08;;;;;;;2.27;1.50;;;;;;;8.12;82.78;96727.03;1717131;83;21149;-78
2021/04/14 00:24:37;;;;;;;2.00;1.60;;;;;;;8.13;81.93;96723.95;1717232;84;21571;-79
2021/04/14 00:27:04;;;;;;;2.30;1.70;;;;;;;8.11;82.21;96724.53;1717506;83;21279;-80
2021/04/14 00:29:31;;;;;;;2.22;1.40;;;;;;;8.08;82.60;96718.20;1734635;83;21159;-81
2021/04/14 00:31:59;;;;;;;1.80;1.37;;;;;;;8.09;82.34;96724.66;1716309;83;21180;-79
2021/04/14 00:34:26;;;;;;;1.87;1.65;;;;;;;8.00;82.47;96721.88;1750290;82;21570;-79
2021/04/14 00:36:53;;;;;;;2.08;1.67;;;;;;;7.97;82.03;96719.88;1751937;82;21145;-80
2021/04/14 00:39:25;;;;;;;2.20;1.77;;;;;;;7.98;81.89;96717.58;1741893;82;21179;-80
2021/04/14 00:41:54;;;;;;;2.10;1.67;;;;;;;7.98;81.89;96717.58;1752041;82;21159;-80
2021/04/14 00:44:23;;;;;;;1.85;1.50;;;;;;;7.96;82.09;96718.66;1741906;82;21211;-80
2021/04/14 00:46:51;;;;;;;1.87;1.47;;;;;;;7.96;82.60;96713.41;1752077;82;21113;-79
2021/04/14 00:49:18;;;;;;;2.12;1.90;;;;;;;7.88;82.10;96703.52;1711311;82;21631;-79
2021/04/14 00:51:47;;;;;;;1.95;1.30;;;;;;;7.88;82.10;96703.52;1697931;83;21477;-80
2021/04/14 00:54:15;;;;;;;2.52;2.10;;;;;;;7.93;82.49;96719.73;1709459;84;21206;-80
2021/04/14 00:56:42;;;;;;;1.60;1.30;;;;;;;7.84;82.37;96717.80;1723518;82;21273;-79
2021/04/14 00:59:10;;;;;;;2.20;1.82;;;;;;;7.79;82.94;96718.64;1726628;82;21114;-80
2021/04/14 01:01:38;;;;;;;1.65;1.35;;;;;;;7.73;82.67;96711.20;1745207;82;21291;-80
2021/04/14 01:04:05;;;;;;;1.77;1.35;;;;;;;7.72;82.71;96716.94;1744952;82;21164;-80
2021/04/14 01:06:33;;;;;;;2.20;1.70;;;;;;;7.73;82.56;96712.52;1760158;81;21155;-81
2021/04/14 01:09:00;;;;;;;1.70;1.30;;;;;;;7.80;82.57;96708.02;1760099;81;21124;-81
2021/04/14 01:11:30;;;;;;;2.60;1.92;;;;;;;7.80;82.57;96708.02;1759807;81;21164;-80
2021/04/14 01:13:57;;;;;;;2.00;1.80;;;;;;;7.90;82.47;96707.33;1759472;81;21565;-81
2021/04/14 01:16:24;;;;;;;2.55;1.87;;;;;;;7.90;82.47;96707.33;1740881;82;21170;-80
2021/04/14 01:18:51;;;;;;;2.55;1.75;;;;;;;7.95;82.37;96701.23;1740945;82;21164;-80
2021/04/14 01:21:36;;;;;;;2.15;1.52;;;;;;;7.94;82.57;96706.13;1741131;82;21153;-80
2021/04/14 01:24:13;;;;;;;2.20;1.65;;;;;;;7.94;82.57;96706.13;1741059;82;21163;-79
2021/04/14 01:26:41;;;;;;;1.90;1.62;;;;;;;7.86;81.96;96698.84;1741280;82;21565;-82
2021/04/14 01:29:11;;;;;;;2.05;1.40;;;;;;;7.81;82.05;96693.95;1730282;82;21123;-81
2021/04/14 01:31:40;;;;;;;2.58;1.67;;;;;;;7.81;82.05;96693.95;1741274;82;21163;-81
2021/04/14 01:34:13;;;;;;;2.08;1.62;;;;;;;7.82;81.74;96700.02;1767587;81;21719;-80
2021/04/14 01:36:41;;;;;;;2.35;1.72;;;;;;;7.81;82.22;96693.95;1767074;81;21288;-79
2021/04/14 01:39:12;;;;;;;1.75;1.42;;;;;;;7.81;82.22;96693.95;1768324;81;21269;-83
2021/04/14 01:41:40;;;;;;;3.50;1.40;;;;;;;7.75;82.38;96693.57;1768639;81;21139;-82
2021/04/14 01:44:10;;;;;;;2.12;1.50;;;;;;;7.61;82.47;96693.30;1767827;81;21266;-83
2021/04/14 01:46:42;;;;;;;2.65;2.08;;;;;;;7.61;82.47;96693.30;1766993;81;21148;-81
2021/04/14 01:49:12;;;;;;;2.62;1.98;;;;;;;7.52;82.55;96676.44;1714579;84;21153;-82
2021/04/14 01:51:40;;;;;;;1.87;1.60;;;;;;;7.50;82.49;96683.13;1738625;83;21162;-82
2021/04/14 01:54:10;;;;;;;2.65;2.00;;;;;;;7.59;82.43;96682.92;1755232;81;21131;-83
2021/04/14 01:56:39;;;;;;;2.87;1.90;;;;;;;7.59;82.43;96682.92;1766657;81;21127;-82
2021/04/14 01:59:07;;;;;;;2.55;2.35;;;;;;;7.62;82.32;96689.72;1724990;80;21198;-80
2021/04/14 02:01:34;;;;;;;3.20;2.70;;;;;;;7.58;82.60;96677.77;1756170;82;21144;-80
2021/04/14 02:04:01;;;;;;;2.55;2.12;;;;;;;7.64;82.39;96689.14;1756091;81;21262;-79
2021/04/14 02:06:29;;;;;;;3.52;2.15;;;;;;;7.64;82.24;96678.64;1757727;82;21329;-82
2021/04/14 02:08:56;;;;;;;2.10;1.82;;;;;;;7.68;82.31;96687.12;1757479;81;21151;-79
2021/04/14 02:11:23;;;;;;;2.70;2.30;;;;;;;7.66;82.56;96680.20;1757924;82;21266;-82
2021/04/14 02:13:52;;;;;;;2.22;1.75;;;;;;;7.66;82.56;96680.20;1748251;81;21180;-81
2021/04/14 02:16:21;;;;;;;2.60;2.22;;;;;;;7.58;82.69;96680.39;1758020;82;21234;-78
2021/04/14 02:18:52;;;;;;;1.52;1.30;;;;;;;7.46;82.86;96675.59;1757894;82;21100;-79
2021/04/14 02:21:21;;;;;;;1.95;1.55;;;;;;;7.42;82.81;96678.92;1758054;82;21257;-81
2021/04/14 02:23:50;;;;;;;3.55;2.27;;;;;;;7.31;83.16;96681.50;1758245;81;21254;-80
2021/04/14 02:26:21;;;;;;;3.27;1.50;;;;;;;7.16;82.84;96673.83;1757986;82;21135;-81
2021/04/14 02:28:49;;;;;;;2.25;1.90;;;;;;;7.11;83.98;96678.55;1767358;80;21254;-81
2021/04/14 02:31:30;;;;;;;3.10;2.20;;;;;;;7.05;84.51;96676.88;1788731;80;21156;-79
2021/04/14 02:34:09;;;;;;;4.80;2.20;;;;;;;7.01;83.40;96675.78;1788257;80;21112;-81
2021/04/14 02:36:38;;;;;;;2.30;1.95;;;;;;;7.05;83.75;96682.94;1788493;80;21160;-81
2021/04/14 02:39:09;;;;;;;3.12;1.82;;;;;;;7.00;83.52;96672.80;1788513;80;21208;-82
2021/04/14 02:41:36;;;;;;;2.02;1.70;;;;;;;6.99;83.72;96675.05;1757951;82;21266;-81
2021/04/14 02:44:06;;;;;;;2.17;1.90;;;;;;;6.96;83.56;96674.44;1727534;83;21325;-80
2021/04/14 02:46:33;;;;;;;3.30;2.12;;;;;;;7.00;83.59;96671.48;1757431;82;21310;-80
2021/04/14 02:49:00;;;;;;;2.80;2.05;;;;;;;7.14;83.91;96672.27;1754994;82;21184;-80
2021/04/14 02:51:28;;;;;;;1.85;1.30;;;;;;;7.14;83.91;96672.27;1773537;80;21589;-82
2021/04/14 02:53:55;;;;;;;2.20;1.95;;;;;;;7.15;83.60;96672.15;1757253;81;21544;-78
2021/04/14 02:56:22;;;;;;;2.83;2.20;;;;;;;7.08;83.40;96667.45;1757155;82;21257;-80
2021/04/14 02:58:49;;;;;;;2.45;2.00;;;;;;;7.08;83.55;96667.45;1757189;81;21131;-80
2021/04/14 03:01:18;;;;;;;1.62;1.15;;;;;;;7.09;83.79;96671.30;1759640;81;21126;-80
2021/04/14 03:03:55;;;;;;;1.98;1.60;;;;;;;7.08;83.47;96667.45;1759856;81;21116;-82
2021/04/14 03:06:22;;;;;;;2.05;1.80;;;;;;;7.01;83.64;96668.38;1764530;80;21533;-81
2021/04/14 03:08:50;;;;;;;2.20;1.87;;;;;;;6.97;83.50;96670.87;1759688;82;21151;-79
2021/04/14 03:11:17;;;;;;;2.70;2.00;;;;;;;6.96;83.26;96663.95;1753701;81;21144;-80
2021/04/14 03:13:45;;;;;;;2.90;2.10;;;;;;;7.03;83.39;96664.72;1753627;82;21113;-80
2021/04/14 03:16:13;;;;;;;2.35;1.70;;;;;;;7.06;83.29;96662.80;1753661;82;21605;-80
2021/04/14 03:18:41;;;;;;;2.42;1.90;;;;;;;7.10;83.21;96663.77;1753302;82;21164;-79
2021/04/14 03:21:08;;;;;;;2.80;1.92;;;;;;;7.16;83.28;96664.66;1752248;82;21128;-80
2021/04/14 03:23:35;;;;;;;3.22;1.92;;;;;;;7.19;83.33;96660.96;1748942;82;21101;-80
2021/04/14 03:26:02;;;;;;;2.80;1.92;;;;;;;7.24;83.29;96658.83;1723904;82;21694;-79
2021/04/14 03:28:30;;;;;;;2.45;1.20;;;;;;;7.27;83.04;96663.03;1771291;80;21131;-79
2021/04/14 03:30:57;;;;;;;1.87;1.35;;;;;;;7.19;83.56;96664.41;1743334;81;21196;-81
2021/04/14 03:33:24;;;;;;;2.75;1.87;;;;;;;7.10;83.15;96665.08;1750208;81;21140;-80
2021/04/14 03:35:53;;;;;;;2.45;1.70;;;;;;;7.08;82.98;96664.38;1768896;81;21112;-80
2021/04/14 03:38:20;;;;;;;2.58;1.72;;;;;;;7.23;83.52;96662.87;1746573;81;21163;-78
2021/04/14 03:40:48;;;;;;;2.00;1.37;;;;;;;7.23;83.52;96662.87;1761281;81;21148;-81
2021/04/14 03:43:15;;;;;;;1.82;1.40;;;;;;;7.30;83.35;96662.33;1770857;81;21112;-80
2021/04/14 03:45:45;;;;;;;1.65;1.40;;;;;;;7.29;83.32;96664.58;1771146;81;21115;-80
2021/04/14 03:48:12;;;;;;;1.30;1.00;;;;;;;7.29;83.24;96667.66;1770844;81;21132;-80
2021/04/14 03:50:39;;;;;;;1.72;1.20;;;;;;;7.26;83.21;96664.80;1770928;81;21143;-79
2021/04/14 03:53:25;;;;;;;1.90;1.37;;;;;;;7.24;83.61;96660.14;1771154;81;21156;-82
2021/04/14 03:56:04;;;;;;;2.40;1.70;;;;;;;7.18;83.07;96667.16;1763268;81;21169;-81
2021/04/14 03:58:35;;;;;;;3.70;1.45;;;;;;;7.25;83.76;96664.92;1770604;81;21585;-80
2021/04/14 04:01:07;;;;;;;2.08;1.50;;;;;;;7.30;83.34;96666.72;1731395;81;21167;-81
2021/04/14 04:03:35;;;;;;;2.98;1.02;;;;;;;7.36;84.03;96661.03;1719516;83;21187;-80
2021/04/14 04:06:03;;;;;;;1.62;1.00;;;;;;;7.22;83.22;96665.14;1719470;83;21187;-81
2021/04/14 04:08:31;;;;;;;1.20;0.80;;;;;;;7.12;83.12;96667.61;1719538;83;21156;-80
2021/04/14 04:10:58;;;;;;;0.82;0.53;;;;;;;7.06;83.02;96671.97;1719102;83;21164;-81
2021/04/14 04:13:29;;;;;;;2.92;1.12;;;;;;;6.95;82.58;96671.45;1719667;83;21175;-80
2021/04/14 04:15:56;;;;;;;3.02;0.70;;;;;;;6.81;82.82;96675.06;1722358;83;22113;-81
2021/04/14 04:18:23;;;;;;;0.55;0.50;;;;;;;6.70;82.89;96674.53;1723196;83;21176;-80
2021/04/14 04:20:51;;;;;;;2.08;0.75;;;;;;;6.58;83.21;96668.39;1719363;83;21133;-82
2021/04/14 04:23:19;;;;;;;1.55;0.88;;;;;;;6.53;83.12;96666.55;1719540;83;21200;-79
2021/04/14 04:25:46;;;;;;;1.22;0.90;;;;;;;6.48;83.51;96677.35;1719246;83;21144;-80
2021/04/14 04:28:14;;;;;;;1.20;0.80;;;;;;;6.42;82.96;96681.72;1712134;83;21101;-79
2021/04/14 04:30:41;;;;;;;0.93;0.80;;;;;;;6.28;83.18;96660.44;1741067;82;21170;-80
2021/04/14 04:33:08;;;;;;;1.02;0.75;;;;;;;6.48;83.61;96684.38;1734399;82;21147;-80
2021/04/14 04:35:36;;;;;;;1.40;0.80;;;;;;;6.50;83.11;96679.85;1740188;82;21101;-80
2021/04/14 04:38:05;;;;;;;2.98;1.20;;;;;;;6.55;83.37;96686.44;1742707;81;21187;-80
2021/04/14 04:40:32;;;;;;;1.20;0.72;;;;;;;6.56;83.31;96686.81;1732232;83;21553;-79
2021/04/14 04:43:01;;;;;;;1.57;0.72;;;;;;;6.66;83.46;96679.61;1752057;82;21566;-79
2021/04/14 04:45:31;;;;;;;1.30;0.90;;;;;;;6.69;83.43;96679.41;1737483;82;21152;-80
2021/04/14 04:47:58;;;;;;;0.57;0.50;;;;;;;6.70;84.33;96686.31;1737195;82;21135;-81
2021/04/14 04:50:28;;;;;;;1.82;1.02;;;;;;;6.69;83.21;96683.33;1736550;83;21147;-79
2021/04/14 04:52:58;;;;;;;0.90;0.70;;;;;;;6.62;83.22;96686.85;1737082;82;21144;-79
2021/04/14 04:55:26;;;;;;;0.90;0.70;;;;;;;6.56;83.16;96695.97;1737873;82;21123;-78
2021/04/14 04:57:55;;;;;;;0.75;0.60;;;;;;;6.48;82.62;96690.93;1735293;83;21144;-81
2021/04/14 05:00:23;;;;;;;0.85;0.70;;;;;;;6.42;82.44;96690.89;1751631;80;21139;-78
2021/04/14 05:02:53;;;;;;;4.28;2.75;;;;;;;6.41;83.29;96694.44;1820766;78;21265;-81
2021/04/14 05:05:25;;;;;;;1.12;0.85;;;;;;;6.44;83.38;96698.17;1800359;79;21088;-82
2021/04/14 05:07:52;;;;;;;1.60;1.30;;;;;;;6.37;82.70;96701.68;1741487;82;21897;-80
2021/04/14 05:10:21;;;;;;;1.35;0.90;;;;;;;6.38;83.18;96698.58;1769115;80;21152;-80
2021/04/14 05:12:52;;;;;;;2.72;0.78;;;;;;;6.36;82.88;96692.60;1741233;82;21218;-81
2021/04/14 05:15:28;;;;;;;1.52;1.05;;;;;;;6.28;82.97;96696.23;1744607;81;21607;-81
2021/04/14 05:17:55;;;;;;;1.30;1.10;;;;;;;6.19;83.34;96697.72;1821263;79;21131;-81
2021/04/14 05:20:23;;;;;;;0.80;0.80;;;;;;;6.09;83.08;96709.27;1791821;79;21631;-81
2021/04/14 05:22:51;;;;;;;1.45;1.07;;;;;;;6.08;83.48;96704.98;1790964;79;21135;-81
2021/04/14 05:25:22;;;;;;;1.30;1.07;;;;;;;6.15;84.50;96704.95;1816114;79;21115;-78
2021/04/14 05:27:52;;;;;;;1.55;1.00;;;;;;;6.27;84.02;96710.25;1798315;79;21569;-79
2021/04/14 05:30:20;;;;;;;1.85;1.20;;;;;;;6.32;83.62;96709.48;1797368;79;21084;-80
2021/04/14 05:32:50;;;;;;;2.30;1.10;;;;;;;6.40;83.59;96712.41;1783766;79;21152;-80
2021/04/14 05:35:18;;;;;;;1.42;0.90;;;;;;;6.46;83.53;96708.52;1782162;79;21343;-81
2021/04/14 05:37:45;;;;;;;1.87;1.02;;;;;;;6.41;82.62;96708.84;1741228;82;21122;-79
2021/04/14 05:40:14;;;;;;;10.55;2.80;;;;;;;6.25;82.96;96707.30;1777930;80;21150;-80
2021/04/14 05:42:45;;;;;;;1.35;0.80;;;;;;;6.23;83.08;96707.87;1757317;82;21139;-80
2021/04/14 05:45:21;;;;;;;2.00;1.17;;;;;;;6.25;83.17;96711.68;1781405;80;21145;-80
2021/04/14 05:47:48;;;;;;;2.15;1.07;;;;;;;6.21;82.94;96714.16;1794668;79;21567;-79
2021/04/14 05:50:20;;;;;;;0.85;0.70;;;;;;;6.20;82.96;96709.86;1792231;80;21234;-82
2021/04/14 05:52:48;;;;;;;1.10;0.70;;;;;;;6.26;82.97;96715.97;1795221;79;22182;-78
2021/04/14 05:55:19;;;;;;;0.88;0.62;;;;;;;6.32;83.06;96712.10;1805486;79;21104;-79
2021/04/14 05:57:47;;;;;;;1.95;0.95;;;;;;;6.24;82.11;96713.92;1816786;79;21127;-78
2021/04/14 06:00:16;;;;;;;1.10;0.88;;;;;;;6.17;82.75;96720.05;1819246;79;21151;-78
2021/04/14 06:02:44;;;;;;;1.50;0.90;;;;;;;6.22;82.96;96715.35;1816807;78;21116;-78
2021/04/14 06:05:16;;;;;;;3.70;1.00;;;;;;;6.24;83.17;96714.78;1822363;78;21116;-77
2021/04/14 06:07:43;;;;;;;1.20;0.80;;;;;;;6.31;83.17;96719.09;1813853;79;21116;-77
2021/04/14 06:10:13;;;;;;;3.45;1.07;;;;;;;6.37;83.58;96717.39;1799734;78;21149;-77
2021/04/14 06:12:40;;;;;;;3.08;1.80;;;;;;;6.48;83.66;96721.05;1809144;79;21103;-78
2021/04/14 06:15:13;;;;;;;1.20;0.85;;;;;;;6.54;83.20;96721.42;1817072;79;21111;-78
2021/04/14 06:17:41;;;;;;;3.15;1.27;;;;;;;6.52;82.97;96719.86;1819321;78;21152;-79
2021/04/14 06:20:13;;;;;;;7.90;1.45;;;;;;;6.55;83.03;96722.28;1818993;79;21648;-78
2021/04/14 06:22:40;;;;;;;2.17;1.52;;;;;;;6.61;83.31;96720.53;1817796;78;21557;-79
2021/04/14 06:25:13;;;;;;;4.55;1.65;;;;;;;6.62;82.97;96728.75;1801176;79;21123;-79
2021/04/14 06:30:42;;;;;;;2.27;1.30;;;;;;;6.65;82.89;96723.77;1820603;77;22814;-77
2021/04/14 06:33:11;;;;;;;7.22;2.30;;;;;;;6.60;82.82;96725.89;1668588;86;21124;-82
2021/04/14 06:35:41;;;;;;;2.25;1.70;;;;;;;6.59;83.28;96725.52;1648491;86;21592;-80
2021/04/14 06:38:10;;;;;;;2.45;1.32;;;;;;;6.61;82.61;96724.95;1647413;87;21176;-81
2021/04/14 06:43:45;;;;;;;2.65;1.20;;;;;;;6.58;82.79;96733.86;1618718;89;21188;-80
2021/04/14 06:46:29;;;;;;;2.50;1.72;;;;;;;6.62;82.97;96733.17;1549746;89;21140;-78
2021/04/14 06:49:21;;;;;;;1.77;1.30;;;;;;;6.64;82.93;96736.50;1597611;88;21245;-78
2021/04/14 06:52:05;;;;;;;1.35;1.00;;;;;;;6.61;82.71;96734.11;1607029;87;21219;-78
2021/04/14 06:54:47;;;;;;;1.55;0.80;;;;;;;6.58;82.71;96736.94;1615998;89;21191;-78
2021/04/14 06:57:26;;;;;;;1.67;1.10;;;;;;;6.58;82.73;96740.41;1619627;88;21173;-78
2021/04/14 07:00:31;;;;;;;2.02;0.88;;;;;;;6.67;83.05;96740.22;1779490;77;28287;-78
2021/04/14 07:03:28;;;;;;;0.50;0.50;;;;;;;6.73;83.14;96742.40;1758732;80;21106;-78
2021/04/14 07:06:00;;;;;;;0.62;0.40;;;;;;;6.60;82.00;96745.53;1801802;78;21155;-78
2021/04/14 07:08:42;;;;;;;2.58;0.90;;;;;;;6.37;80.74;96750.11;1778375;78;21548;-78
2021/04/14 07:11:15;;;;;;;3.72;0.78;;;;;;;6.25;81.73;96747.87;1812139;78;21112;-78
2021/04/14 07:13:46;;;;;;;1.32;0.70;;;;;;;6.23;82.20;96756.74;1807789;78;21672;-78
2021/04/14 07:16:28;;;;;;;1.32;0.70;;;;;;;6.19;82.02;96760.53;1780768;78;21143;-77
2021/04/14 07:19:07;;;;;;;1.22;0.53;;;;;;;6.19;81.75;96763.15;1764536;80;21616;-78
2021/04/14 07:21:47;;;;;;;0.57;0.50;;;;;;;6.16;82.44;96764.20;1780174;78;21139;-77
2021/04/14 07:24:23;;;;;;;1.17;0.68;;;;;;;6.19;82.73;96766.59;1770409;80;21167;-79
2021/04/14 07:27:11;;;;;;;4.17;1.50;;;;;;;6.27;82.50;96766.53;1748570;81;21134;-82
2021/04/14 07:29:43;;;;;;;1.10;0.70;;;;;;;6.31;81.95;96768.02;1650310;83;21196;-81
2021/04/14 07:32:52;;;;;;;0.85;0.60;;;;;;;6.33;82.40;96773.50;1735249;83;21273;-79
2021/04/14 07:35:27;;;;;;;2.35;0.78;;;;;;;6.32;82.16;96776.23;1562024;91;21179;-79
2021/04/14 07:38:12;;;;;;;4.55;2.20;;;;;;;6.33;82.22;96778.73;1590527;88;21188;-80
2021/04/14 07:41:03;;;;;;;1.50;1.12;;;;;;;6.37;82.10;96775.44;1588938;90;21152;-80
2021/04/14 07:43:46;;;;;;;1.32;0.93;;;;;;;6.43;82.13;96781.58;1570162;90;21237;-80
2021/04/14 07:46:17;;;;;;;1.47;0.50;;;;;;;6.37;81.48;96788.52;1593493;88;21627;-79
2021/04/14 07:48:45;;;;;;;1.02;0.65;;;;;;;6.29;81.54;96781.22;1598795;88;21621;-78
2021/04/14 07:51:17;;;;;;;1.47;0.70;;;;;;;6.27;81.70;96785.71;1599665;88;21245;-78
2021/04/14 07:54:02;;;;;;;1.00;0.90;;;;;;;6.24;81.97;96787.22;1599708;88;21138;-77
2021/04/14 07:56:47;;;;;;;1.12;0.70;;;;;;;6.25;82.06;96788.44;1604029;88;21685;-78
2021/04/14 07:59:31;;;;;;;0.75;0.55;;;;;;;6.25;81.98;96787.13;1587451;88;21200;-78
2021/04/14 08:02:10;;;;;;;4.70;0.50;;;;;;;6.27;81.78;96787.47;1561116;91;21628;-78
2021/04/14 08:04:47;;;;;;;2.47;0.60;;;;;;;6.35;81.22;96788.64;1749622;79;38641;-78
2021/04/14 08:07:24;;;;;;;1.22;0.50;;;;;;;6.43;82.23;96792.05;1734409;82;21136;-78
2021/04/14 08:10:02;;;;;;;2.12;0.50;;;;;;;6.35;81.56;96784.72;1737146;82;21156;-78
2021/04/14 08:12:59;;;;;;;3.10;0.50;;;;;;;6.40;81.50;96790.46;1723053;83;21112;-78
2021/04/14 08:15:42;;;;;;;2.22;0.60;;;;;;;6.44;81.32;96785.88;1745974;82;21144;-78
2021/04/14 08:18:24;;;;;;;1.07;0.60;;;;;;;6.55;81.46;96790.37;1747424;82;21148;-77
2021/04/14 08:21:16;;;;;;;2.00;0.68;;;;;;;6.63;81.84;96783.30;1738952;82;21133;-77
2021/04/14 08:24:00;;;;;;;18.95;8.98;;;;;;;6.62;80.59;96776.38;1735944;82;21149;-78
2021/04/14 08:26:30;;;;;;;2.85;1.82;;;;;;;6.56;80.19;96785.02;1740151;82;21199;-78
2021/04/14 08:29:14;;;;;;;1.22;0.70;;;;;;;6.47;79.17;96781.72;1719832;83;21234;-78
2021/04/14 08:31:46;;;;;;;1.47;0.70;;;;;;;6.50;80.20;96785.90;1710986;83;21205;-79
2021/04/14 08:34:30;;;;;;;0.88;0.60;;;;;;;6.50;80.20;96785.90;1690550;83;21143;-79
2021/04/14 08:37:19;;;;;;;0.72;0.70;;;;;;;6.58;80.35;96790.16;1717176;83;21166;-77
2021/04/14 08:39:56;;;;;;;1.37;0.70;;;;;;;6.63;79.86;96788.05;1732119;82;21135;-79
2021/04/14 08:42:31;;;;;;;2.08;0.70;;;;;;;6.65;79.93;96787.48;1736927;82;21124;-78
2021/04/14 08:45:10;;;;;;;0.68;0.60;;;;;;;6.58;78.88;96784.08;1724633;83;21108;-80
2021/04/14 08:47:46;;;;;;;68.02;39.63;;;;;;;6.59;79.47;96780.52;1724577;82;21140;-79
2021/04/14 08:50:28;;;;;;;3.50;2.27;;;;;;;6.63;79.16;96783.30;1708175;83;21119;-79
2021/04/14 08:53:00;;;;;;;1.90;0.68;;;;;;;6.69;79.54;96780.24;1707096;84;21116;-79
2021/04/14 08:55:29;;;;;;;4.35;0.50;;;;;;;6.72;79.28;96782.66;1718584;83;21575;-79
2021/04/14 08:57:58;;;;;;;0.90;0.57;;;;;;;6.75;80.21;96783.73;1724551;83;21295;-78
2021/04/14 09:00:26;;;;;;;0.70;0.55;;;;;;;6.72;79.60;96779.55;1724186;83;21546;-79
2021/04/14 09:03:01;;;;;;;1.98;0.60;;;;;;;6.72;79.60;96779.55;1723707;83;21187;-79
2021/04/14 09:05:30;;;;;;;2.77;0.50;;;;;;;6.75;79.52;96781.60;1710921;83;21113;-78
2021/04/14 09:07:59;;;;;;;0.70;0.40;;;;;;;6.79;79.45;96777.80;1690993;84;21642;-79
2021/04/14 09:10:55;;;;;;;0.62;0.40;;;;;;;6.78;79.03;96783.98;1653397;86;21162;-79
2021/04/14 09:13:48;;;;;;;0.78;0.45;;;;;;;6.75;79.79;96784.22;1710930;84;21164;-79
2021/04/14 09:16:39;;;;;;;2.05;0.68;;;;;;;6.72;78.56;96781.35;1683224;85;21134;-78
2021/04/14 09:19:12;;;;;;;2.02;0.70;;;;;;;6.76;78.77;96784.59;1706155;82;21143;-79
2021/04/14 09:21:47;;;;;;;0.68;0.50;;;;;;;6.78;78.96;96783.53;1707198;84;21591;-78
2021/04/14 09:24:32;;;;;;;0.87;0.53;;;;;;;6.83;79.47;96780.59;1706590;83;21747;-77
2021/04/14 09:27:02;;;;;;;1.22;0.82;;;;;;;6.87;78.71;96780.27;1711045;83;21139;-78
2021/04/14 09:29:45;;;;;;;1.60;0.70;;;;;;;6.88;77.24;96783.71;1718175;83;21152;-78
2021/04/14 09:32:16;;;;;;;2.22;0.80;;;;;;;6.93;79.20;96784.24;1718909;83;21569;-77
2021/04/14 09:34:52;;;;;;;1.55;0.70;;;;;;;6.96;75.81;96784.00;1717686;83;21290;-77
2021/04/14 09:37:27;;;;;;;2.58;0.70;;;;;;;6.93;77.75;96784.70;1704991;83;21578;-78
2021/04/14 09:40:03;;;;;;;1.02;0.60;;;;;;;6.93;78.22;96788.62;1702665;83;21141;-77
2021/04/14 09:42:40;;;;;;;1.82;0.98;;;;;;;7.00;77.98;96785.97;1721011;82;21133;-78
2021/04/14 09:45:29;;;;;;;3.52;0.72;;;;;;;7.12;79.17;96788.17;1690303;83;21147;-78
2021/04/14 09:48:01;;;;;;;3.17;0.80;;;;;;;7.16;77.96;96785.23;1656421;87;21163;-78
2021/04/14 09:50:34;;;;;;;1.47;0.75;;;;;;;7.16;79.02;96786.54;1648573;87;21601;-77
2021/04/14 09:53:17;;;;;;;2.22;0.70;;;;;;;7.27;76.56;96786.25;1695971;85;21135;-78
2021/04/14 09:56:08;;;;;;;6.33;3.72;;;;;;;7.26;76.47;96788.02;1695695;84;21140;-78
2021/04/14 09:58:49;;;;;;;2.95;1.12;;;;;;;7.31;78.52;96781.12;1688202;84;21154;-81
2021/04/14 10:01:37;;;;;;;1.37;0.90;;;;;;;7.35;78.32;96779.97;1735173;82;21605;-78
2021/04/14 10:07:06;;;;;;;1.22;0.80;;;;;;;7.59;78.31;96781.75;1794793;79;23451;-80
2021/04/14 10:09:37;;;;;;;1.27;0.80;;;;;;;7.56;77.27;96781.99;1791930;80;21309;-80
2021/04/14 10:12:21;;;;;;;3.22;0.78;;;;;;;7.60;78.13;96776.86;1753328;81;21289;-79
2021/04/14 10:14:53;;;;;;;0.95;0.65;;;;;;;7.62;78.79;96781.05;1742954;81;21139;-79
2021/04/14 10:17:27;;;;;;;0.78;0.62;;;;;;;7.60;78.41;96769.00;1738932;81;21189;-79
2021/04/14 10:19:56;;;;;;;1.07;0.80;;;;;;;7.67;78.54;96779.39;1734280;81;21547;-79
2021/04/14 10:22:35;;;;;;;1.07;0.60;;;;;;;7.71;79.38;96776.92;1743455;81;21183;-79
2021/04/14 10:25:27;;;;;;;1.25;0.75;;;;;;;7.79;78.25;96774.56;1731133;83;21602;-79
2021/04/14 10:28:02;;;;;;;5.65;3.15;;;;;;;7.79;78.25;96774.56;1729126;81;21281;-81
2021/04/14 10:30:34;;;;;;;8.53;4.03;;;;;;;7.93;77.52;96783.21;1728981;83;21612;-80
2021/04/14 10:33:17;;;;;;;2.27;1.00;;;;;;;7.96;76.73;96780.34;1698293;84;21159;-80
2021/04/14 10:35:48;;;;;;;0.98;0.68;;;;;;;7.96;78.44;96777.71;1726825;83;21127;-79
2021/04/14 10:38:31;;;;;;;1.17;0.60;;;;;;;7.89;76.46;96778.64;1719070;83;21137;-81
2021/04/14 10:40:59;;;;;;;0.50;0.47;;;;;;;7.89;76.46;96778.64;1719593;83;21141;-80
2021/04/14 10:43:28;;;;;;;1.80;0.45;;;;;;;7.37;75.43;96785.09;1716160;83;21148;-80
2021/04/14 10:46:32;;;;;;;0.47;0.40;;;;;;;6.93;76.06;96779.45;1712393;83;21128;-78
2021/04/14 10:49:04;;;;;;;0.68;0.45;;;;;;;6.82;77.91;96786.28;1732614;83;21152;-80
2021/04/14 10:51:51;;;;;;;0.45;0.45;;;;;;;6.77;78.01;96785.78;1753692;81;21139;-79
2021/04/14 10:54:24;;;;;;;0.50;0.50;;;;;;;6.56;77.70;96786.33;1700330;84;21289;-79
2021/04/14 10:57:04;;;;;;;0.70;0.60;;;;;;;6.47;77.77;96786.95;1729446;81;21164;-79
2021/04/14 10:59:34;;;;;;;0.98;0.60;;;;;;;6.39;78.04;96788.81;1733210;81;21151;-79
2021/04/14 11:02:10;;;;;;;0.98;0.60;;;;;;;6.50;78.01;96789.83;1749687;80;21128;-80
2021/04/14 11:04:41;;;;;;;1.45;0.60;;;;;;;6.61;78.68;96783.87;1732457;81;21321;-80
2021/04/14 11:07:13;;;;;;;0.47;0.47;;;;;;;6.66;78.32;96791.78;1750788;81;21601;-79
2021/04/14 11:09:44;;;;;;;0.82;0.57;;;;;;;6.66;78.56;96789.16;1787696;80;21286;-79
2021/04/14 11:12:25;;;;;;;1.27;0.93;;;;;;;6.62;78.78;96790.79;1788696;80;21140;-80
2021/04/14 11:14:57;;;;;;;1.10;0.45;;;;;;;6.62;77.61;96781.62;1788434;80;21151;-79
2021/04/14 11:17:29;;;;;;;0.85;0.75;;;;;;;6.72;78.34;96786.59;1784969;80;21542;-79
2021/04/14 11:20:07;;;;;;;0.93;0.50;;;;;;;6.77;78.80;96788.41;1764862;80;21126;-80
2021/04/14 11:22:48;;;;;;;0.82;0.60;;;;;;;6.87;77.71;96785.96;1761398;80;21127;-80
2021/04/14 11:25:35;;;;;;;0.70;0.60;;;;;;;6.85;76.66;96792.63;1763172;80;21148;-78
2021/04/14 11:28:10;;;;;;;1.07;0.60;;;;;;;6.82;78.53;96791.52;1755933;80;21148;-77
2021/04/14 11:30:57;;;;;;;0.72;0.50;;;;;;;6.87;78.93;96794.67;1757000;82;21195;-78
2021/04/14 11:33:44;;;;;;;1.98;0.78;;;;;;;6.88;78.58;96794.19;1757006;82;21137;-80
2021/04/14 11:36:29;;;;;;;1.40;0.57;;;;;;;6.97;79.16;96793.55;1761107;80;21156;-78
2021/04/14 11:39:11;;;;;;;1.17;0.70;;;;;;;6.95;78.19;96786.74;1756828;81;21140;-78
2021/04/14 11:41:43;;;;;;;0.80;0.65;;;;;;;7.07;78.52;96788.50;1657736;83;21248;-78
2021/04/14 11:44:27;;;;;;;1.10;0.60;;;;;;;7.07;78.52;96788.50;1727016;83;21140;-79
2021/04/14 11:47:20;;;;;;;0.95;0.60;;;;;;;7.10;75.51;96792.69;1727452;83;21176;-78
2021/04/14 11:49:48;;;;;;;0.85;0.60;;;;;;;6.95;78.16;96795.45;1729598;83;21674;-78
2021/04/14 11:52:36;;;;;;;0.70;0.60;;;;;;;6.79;78.13;96794.83;1715575;83;21140;-78
2021/04/14 11:55:29;;;;;;;1.15;0.70;;;;;;;6.71;76.81;96801.45;1733240;83;21269;-80
2021/04/14 11:58:24;;;;;;;0.40;0.40;;;;;;;6.69;75.16;96797.27;1701619;84;21128;-80
2021/04/14 12:00:52;;;;;;;0.70;0.60;;;;;;;6.62;76.77;96794.23;1701756;84;21172;-78
2021/04/14 12:03:25;;;;;;;0.50;0.50;;;;;;;6.55;77.33;96792.50;1702006;84;21191;-80
2021/04/14 12:05:59;;;;;;;0.68;0.55;;;;;;;6.54;76.31;96794.75;1702135;84;21172;-79
2021/04/14 12:08:29;;;;;;;1.95;0.68;;;;;;;6.36;76.49;96794.70;1702288;84;21167;-79
2021/04/14 12:11:00;;;;;;;0.72;0.55;;;;;;;6.44;77.38;96800.73;1702322;84;21563;-80
2021/04/14 12:13:29;;;;;;;0.88;0.50;;;;;;;6.44;77.03;96795.50;1701951;84;21120;-78
2021/04/14 12:15:57;;;;;;;0.70;0.50;;;;;;;6.51;76.91;96801.98;1702429;84;21143;-79
2021/04/14 12:18:24;;;;;;;0.72;0.60;;;;;;;6.55;76.88;96796.91;1701952;84;21593;-80
2021/04/14 12:20:51;;;;;;;1.10;0.62;;;;;;;6.59;76.70;96796.23;1702004;84;21160;-79